Time;durP1;ratioP1;P1;durP2;ratioP2;P2;SDS_P1;SDS_P2;PMS_P1;PMS_P2;Temp;Humidity;BMP_temperature;BMP_pressure;BME280_temperature;BME280_humidity;BME280_pressure;Samples;Min_cycle;Max_cycle;Signal;HPM_P1;HPM_P2
2022/10/31 00:02:14;;;;;;;114.53;36.93;;;;;;;11.71;100.00;100986.83;5149500;57;1147272;-78
2022/10/31 00:07:22;;;;;;;77.27;32.37;;;;;;;11.53;100.00;100996.98;5165445;57;1147238;-78
2022/10/31 00:12:28;;;;;;;84.37;30.80;;;;;;;11.23;100.00;101003.58;5165409;57;1145165;-78
2022/10/31 00:17:36;;;;;;;90.97;35.33;;;;;;;11.24;100.00;101001.77;5165415;57;1145106;-78
2022/10/31 00:22:42;;;;;;;95.60;37.93;;;;;;;11.37;100.00;101001.72;5138716;57;1145391;-78
2022/10/31 00:27:48;;;;;;;91.10;37.13;;;;;;;11.43;100.00;100998.63;5125073;57;1145190;-78
2022/10/31 00:32:54;;;;;;;100.90;30.17;;;;;;;11.38;100.00;101001.61;5125382;57;1145183;-78
2022/10/31 00:38:01;;;;;;;83.87;27.10;;;;;;;11.34;100.00;100999.29;5067269;58;1147230;-78
2022/10/31 00:43:07;;;;;;;112.23;28.60;;;;;;;11.35;100.00;101000.98;5072450;58;1145209;-78
2022/10/31 00:48:13;;;;;;;105.63;28.50;;;;;;;11.37;100.00;100999.07;5072464;58;1147283;-78
2022/10/31 00:53:19;;;;;;;90.23;24.80;;;;;;;11.31;100.00;100991.08;5059816;58;1147469;-78
2022/10/31 00:58:25;;;;;;;96.60;24.75;;;;;;;11.23;100.00;100989.02;4995496;58;1145416;-78
2022/10/31 01:03:34;;;;;;;69.93;25.13;;;;;;;11.25;100.00;100992.87;5071493;58;1143152;-78
2022/10/31 01:08:41;;;;;;;90.80;26.80;;;;;;;11.34;100.00;100996.64;5031898;58;1143198;-79
2022/10/31 01:13:50;;;;;;;114.73;26.07;;;;;;;11.40;100.00;101002.34;5031586;58;1143418;-78
2022/10/31 01:18:56;;;;;;;107.23;23.63;;;;;;;11.40;100.00;101000.17;5014187;58;1145151;-77
2022/10/31 01:24:04;;;;;;;91.47;23.23;;;;;;;11.36;100.00;100998.22;5055033;58;1145286;-78
2022/10/31 01:29:11;;;;;;;157.53;26.17;;;;;;;11.37;100.00;101001.72;5081421;58;1143218;-77
2022/10/31 01:34:19;;;;;;;129.53;31.10;;;;;;;11.38;100.00;100999.44;5051391;58;1145304;-77
2022/10/31 01:39:25;;;;;;;154.83;26.57;;;;;;;11.40;100.00;101007.64;5081713;57;1145254;-77
2022/10/31 01:44:35;;;;;;;92.70;23.70;;;;;;;11.20;100.00;101014.86;5081565;58;1145201;-78
2022/10/31 01:49:52;;;;;;;99.20;26.87;;;;;;;10.92;100.00;101014.19;5081794;57;1143104;-77
2022/10/31 01:55:05;;;;;;;93.97;28.70;;;;;;;10.91;100.00;101013.82;5117120;57;1143265;-78
2022/10/31 02:00:13;;;;;;;102.10;25.82;;;;;;;11.01;100.00;101014.00;5115776;57;1141121;-78
2022/10/31 02:05:26;;;;;;;85.60;30.67;;;;;;;11.09;100.00;101016.12;5165645;57;1143125;-78
2022/10/31 02:10:36;;;;;;;71.27;27.53;;;;;;;11.12;100.00;101018.55;5166193;57;1145495;-78
2022/10/31 02:15:44;;;;;;;73.57;26.93;;;;;;;11.04;100.00;101015.11;5165757;57;1145168;-78
2022/10/31 02:21:10;;;;;;;88.77;24.50;;;;;;;10.98;100.00;101014.72;5165539;57;1145298;-77
2022/10/31 02:26:47;;;;;;;82.93;23.40;;;;;;;10.98;100.00;101018.22;5190304;57;1145152;-77
2022/10/31 02:32:33;;;;;;;110.57;26.73;;;;;;;10.98;100.00;101020.02;5190333;57;1145185;-78
2022/10/31 02:37:44;;;;;;;;;;;;;;;10.96;100.00;101017.95;5116070;57;1147645;-78
2022/10/31 02:43:00;;;;;;;91.03;25.80;;;;;;;10.89;100.00;101009.59;5045326;58;978272;-78
2022/10/31 02:48:10;;;;;;;103.27;26.03;;;;;;;10.84;100.00;101015.70;5069177;58;1143496;-78
2022/10/31 02:53:17;;;;;;;116.43;27.57;;;;;;;10.75;100.00;101007.92;5025190;58;1147254;-78
2022/10/31 02:58:26;;;;;;;97.37;24.90;;;;;;;10.88;100.00;101019.33;4987759;57;1146957;-78
2022/10/31 03:03:53;;;;;;;73.55;24.77;;;;;;;10.96;100.00;101024.09;5190204;57;1145181;-77
2022/10/31 03:09:25;;;;;;;96.23;22.57;;;;;;;10.99;100.00;101030.97;5184472;57;1143149;-78
2022/10/31 03:14:58;;;;;;;63.87;20.93;;;;;;;11.01;100.00;101029.88;5143267;57;1143402;-78
2022/10/31 03:20:07;;;;;;;104.30;20.33;;;;;;;11.04;100.00;101043.38;5151694;57;1143490;-78
2022/10/31 03:25:15;;;;;;;80.73;21.67;;;;;;;11.05;100.00;101043.28;5126078;57;1145445;-77
2022/10/31 03:30:22;;;;;;;129.33;24.03;;;;;;;11.05;100.00;101040.63;5158838;57;1143064;-77
2022/10/31 03:35:34;;;;;;;85.60;21.07;;;;;;;11.02;100.00;101040.84;5149547;57;1143105;-78
2022/10/31 03:40:45;;;;;;;85.10;18.20;;;;;;;10.97;100.00;101035.52;5070753;57;1145418;-78
2022/10/31 03:45:51;;;;;;;81.90;16.23;;;;;;;11.05;100.00;101047.25;5139416;57;1146282;-78
2022/10/31 03:51:24;;;;;;;81.53;16.80;;;;;;;11.01;100.00;101047.56;5150508;57;1145672;-78
2022/10/31 03:56:44;;;;;;;92.75;18.50;;;;;;;10.90;100.00;101042.56;5075094;58;1145308;-78
2022/10/31 04:01:56;;;;;;;48.60;17.57;;;;;;;10.85;100.00;101043.83;5043273;58;1145234;-77
2022/10/31 04:07:04;;;;;;;30.47;16.63;;;;;;;10.79;100.00;101033.22;4948742;59;1145483;-77
2022/10/31 04:12:15;;;;;;;48.43;17.13;;;;;;;10.82;100.00;101042.27;4924635;59;1145468;-78
2022/10/31 04:17:41;;;;;;;51.43;21.13;;;;;;;10.74;100.00;101036.66;4869942;60;1145266;-77
2022/10/31 04:22:47;;;;;;;100.40;32.10;;;;;;;10.65;100.00;101040.43;4949907;59;1145712;-77
2022/10/31 04:27:54;;;;;;;47.53;23.20;;;;;;;10.59;100.00;101032.43;4993704;58;1147261;-77
2022/10/31 04:33:01;;;;;;;44.93;19.97;;;;;;;10.59;100.00;101035.08;5093158;58;1145212;-77
2022/10/31 04:38:08;;;;;;;46.53;21.87;;;;;;;10.63;100.00;101039.21;5080191;58;1145137;-78
2022/10/31 04:43:14;;;;;;;48.00;23.40;;;;;;;10.73;100.00;101040.25;5072330;58;1145221;-77
2022/10/31 04:48:22;;;;;;;43.90;24.60;;;;;;;10.79;100.00;101035.87;5072652;58;1145503;-78
2022/10/31 04:53:29;;;;;;;31.07;15.90;;;;;;;10.79;100.00;101044.28;5038828;58;1145131;-77
2022/10/31 04:58:45;;;;;;;22.07;14.23;;;;;;;10.56;100.00;101046.71;4986651;58;1145598;-78
2022/10/31 05:03:52;;;;;;;23.80;13.93;;;;;;;10.36;100.00;101056.98;5043194;58;1145559;-78
2022/10/31 05:08:58;;;;;;;26.23;15.10;;;;;;;10.14;100.00;101061.03;5053290;58;1144662;-77
2022/10/31 05:14:04;;;;;;;30.40;13.50;;;;;;;10.03;100.00;101066.67;5072480;58;1145161;-77
2022/10/31 05:19:27;;;;;;;27.87;13.57;;;;;;;9.99;100.00;101067.34;5073004;58;1143091;-77
2022/10/31 05:24:51;;;;;;;28.87;11.85;;;;;;;10.08;100.00;101066.72;5079176;57;1140850;-78
2022/10/31 05:29:57;;;;;;;41.07;14.50;;;;;;;10.09;100.00;101082.09;5004382;58;1143410;-77
2022/10/31 05:35:03;;;;;;;35.33;14.13;;;;;;;9.97;100.00;101080.28;5124525;56;1143068;-78
2022/10/31 05:40:16;;;;;;;47.97;13.57;;;;;;;9.90;100.00;101081.17;5111578;57;1141001;-77
2022/10/31 05:45:23;;;;;;;33.77;14.33;;;;;;;9.91;100.00;101084.66;5008829;59;1141175;-78
2022/10/31 05:50:34;;;;;;;34.33;13.47;;;;;;;9.96;100.00;101085.19;5124293;57;1141033;-78
2022/10/31 05:55:48;;;;;;;36.47;11.53;;;;;;;10.14;100.00;101076.05;5123997;57;1140949;-78
2022/10/31 06:00:56;;;;;;;35.43;13.00;;;;;;;10.31;100.00;101081.08;5170980;56;1143507;-77
2022/10/31 06:06:02;;;;;;;20.37;10.20;;;;;;;10.37;100.00;101090.41;5209865;56;1141160;-77
2022/10/31 06:11:10;;;;;;;18.57;11.17;;;;;;;10.41;100.00;101086.58;5209825;56;1141004;-77
2022/10/31 06:16:26;;;;;;;180.63;80.13;;;;;;;10.51;100.00;101087.67;5202896;56;1145140;-77
2022/10/31 06:21:37;;;;;;;33.27;15.73;;;;;;;10.50;100.00;101085.97;5209866;56;1147251;-77
2022/10/31 06:26:42;;;;;;;16.30;9.37;;;;;;;10.49;100.00;101094.38;5195140;56;1144769;-77
2022/10/31 06:31:48;;;;;;;21.87;9.77;;;;;;;10.51;100.00;101094.28;5177700;57;1143520;-77
2022/10/31 06:36:54;;;;;;;60.43;22.53;;;;;;;10.55;100.00;101093.09;5061312;57;1143165;-77
2022/10/31 06:42:03;;;;;;;40.40;16.67;;;;;;;10.61;100.00;101103.75;4967685;59;1145137;-77
2022/10/31 06:47:09;;;;;;;35.13;15.23;;;;;;;10.65;100.00;101107.41;5093416;58;1145212;-77
2022/10/31 06:52:17;;;;;;;23.60;9.53;;;;;;;10.69;100.00;101115.52;5084152;57;1145188;-77
2022/10/31 06:57:23;;;;;;;30.43;19.10;;;;;;;10.75;100.00;101128.78;4892313;59;1143140;-77
2022/10/31 07:02:29;;;;;;;26.43;8.90;;;;;;;10.70;100.00;101132.20;5109904;57;1145158;-78
2022/10/31 07:07:36;;;;;;;12.60;6.97;;;;;;;10.60;100.00;101138.61;5098907;57;1143417;-77
2022/10/31 07:12:42;;;;;;;16.63;7.80;;;;;;;10.48;100.00;101149.55;5093095;57;1143285;-78
2022/10/31 07:17:47;;;;;;;28.87;7.30;;;;;;;10.38;100.00;101147.16;5086601;57;1143123;-76
2022/10/31 07:22:54;;;;;;;12.63;7.60;;;;;;;10.41;100.00;101156.66;5073077;57;1143041;-78
2022/10/31 07:28:01;;;;;;;33.27;8.63;;;;;;;10.41;100.00;101158.83;5077447;57;1143261;-77
2022/10/31 07:33:08;;;;;;;23.83;7.97;;;;;;;10.40;100.00;101158.92;5051095;58;1143508;-77
2022/10/31 07:38:29;;;;;;;28.17;8.93;;;;;;;10.36;100.00;101170.67;4978700;57;1143383;-77
2022/10/31 07:43:38;;;;;;;30.50;7.57;;;;;;;10.38;100.00;101178.89;5054235;57;1143139;-78
2022/10/31 07:48:56;;;;;;;44.18;8.35;;;;;;;10.42;100.00;101168.45;5050882;58;1143355;-77
2022/10/31 07:54:14;;;;;;;65.80;9.87;;;;;;;10.47;100.00;101178.27;4964417;57;1142603;-77
2022/10/31 07:59:21;;;;;;;56.43;10.60;;;;;;;10.48;100.00;101168.06;5097396;57;1143124;-77
2022/10/31 08:04:27;;;;;;;53.10;10.13;;;;;;;10.60;100.00;101170.83;5093012;57;1145244;-77
2022/10/31 08:09:50;;;;;;;48.58;8.18;;;;;;;10.68;100.00;101155.30;5127052;57;1145790;-78
2022/10/31 08:15:01;;;;;;;61.40;10.77;;;;;;;10.77;100.00;101162.59;5078522;57;1140990;-78
2022/10/31 08:20:09;;;;;;;80.33;9.77;;;;;;;10.90;100.00;101156.83;5052676;57;1143087;-76
2022/10/31 08:25:16;;;;;;;55.23;9.17;;;;;;;11.03;100.00;101156.35;5147785;57;1141236;-77
2022/10/31 08:30:28;;;;;;;27.80;7.90;;;;;;;11.10;100.00;101152.34;5085026;57;1141281;-78
2022/10/31 08:35:35;;;;;;;;;;;;;;;11.18;100.00;101162.37;5057157;57;1141323;-76
2022/10/31 08:40:50;;;;;;;63.27;9.77;;;;;;;11.33;100.00;101164.42;5045649;58;976392;-77
2022/10/31 08:45:55;;;;;;;89.10;9.57;;;;;;;11.36;100.00;101164.22;5075528;57;1139349;-77
2022/10/31 08:51:03;;;;;;;94.52;10.48;;;;;;;11.37;100.00;101164.59;5123760;57;1141016;-77
2022/10/31 08:56:10;;;;;;;68.17;10.50;;;;;;;11.50;100.00;101167.58;5050888;58;1143203;-77
2022/10/31 09:01:18;;;;;;;122.50;10.98;;;;;;;11.55;100.00;101168.59;5119620;57;1143134;-77
2022/10/31 09:06:24;;;;;;;72.93;10.60;;;;;;;11.57;100.00;101174.63;5133821;57;1145237;-76
2022/10/31 09:11:31;;;;;;;59.93;10.03;;;;;;;11.58;100.00;101185.59;5134045;57;1143445;-76
2022/10/31 09:16:48;;;;;;;39.87;12.70;;;;;;;11.61;100.00;101184.88;5153790;57;21152;-76
2022/10/31 09:21:56;;;;;;;34.70;10.03;;;;;;;11.62;100.00;101195.84;5133890;57;1141233;-77
2022/10/31 09:27:02;;;;;;;40.63;11.77;;;;;;;11.64;100.00;101196.59;5134201;57;1145420;-77
2022/10/31 09:32:07;;;;;;;63.43;12.93;;;;;;;11.67;100.00;101203.95;5047889;58;1145210;-77
2022/10/31 09:37:15;;;;;;;23.70;11.03;;;;;;;11.71;100.00;101204.96;5101082;57;1145181;-77
2022/10/31 09:42:52;;;;;;;49.87;11.63;;;;;;;11.80;100.00;101206.13;5067950;57;1145226;-76
2022/10/31 09:48:23;;;;;;;49.10;12.73;;;;;;;11.84;100.00;101205.80;5099472;57;1145269;-77
2022/10/31 09:53:52;;;;;;;118.13;14.60;;;;;;;11.96;100.00;101212.87;5072898;57;1145236;-76
2022/10/31 09:59:03;;;;;;;82.20;15.03;;;;;;;12.02;100.00;101202.31;5062948;57;1147342;-77
2022/10/31 10:04:40;;;;;;;66.60;15.27;;;;;;;12.10;100.00;101199.93;5088865;57;1145231;-77
2022/10/31 10:09:51;;;;;;;83.57;16.93;;;;;;;12.27;100.00;101212.80;5126563;57;1145171;-76
2022/10/31 10:15:27;;;;;;;52.23;14.73;;;;;;;12.34;100.00;101207.91;5077726;57;1145200;-77
2022/10/31 10:20:56;;;;;;;;;;;;;;;12.46;100.00;101204.81;5017179;58;1143203;-77
2022/10/31 10:26:21;;;;;;;71.97;16.27;;;;;;;12.47;100.00;101208.68;5130275;56;976430;-77
2022/10/31 10:31:31;;;;;;;46.90;17.07;;;;;;;12.52;100.00;101208.34;5023611;57;1141109;-76
2022/10/31 10:36:54;;;;;;;72.13;18.70;;;;;;;12.62;100.00;101210.19;4883523;58;1143233;-77
2022/10/31 10:47:40;;;;;;;42.23;18.37;;;;;;;12.83;100.00;101203.72;4926165;57;1145248;-78
2022/10/31 10:53:06;;;;;;;56.33;20.23;;;;;;;12.89;100.00;101195.78;5041297;58;1145175;-77
2022/10/31 10:58:14;;;;;;;34.77;21.27;;;;;;;12.93;100.00;101194.59;5047191;57;1145248;-78
2022/10/31 11:03:20;;;;;;;35.38;22.02;;;;;;;12.97;100.00;101188.09;5054099;58;1145312;-77
2022/10/31 11:08:38;;;;;;;43.77;24.90;;;;;;;13.03;100.00;101187.59;5014323;58;1145226;-77
2022/10/31 11:13:48;;;;;;;43.00;27.60;;;;;;;13.11;100.00;101195.83;5078148;58;1145375;-77
2022/10/31 11:18:54;;;;;;;54.27;31.50;;;;;;;13.17;100.00;101183.42;5041419;57;1145487;-78
2022/10/31 11:24:13;;;;;;;51.57;29.30;;;;;;;13.24;100.00;101188.63;5012998;58;1145312;-77
2022/10/31 11:29:27;;;;;;;44.30;29.63;;;;;;;13.36;100.00;101187.66;5073177;57;1145309;-77
2022/10/31 11:34:41;;;;;;;58.43;29.70;;;;;;;13.48;100.00;101185.84;5068870;57;1145287;-78
2022/10/31 11:39:54;;;;;;;52.00;33.30;;;;;;;13.59;100.00;101187.19;4986316;59;1145147;-77
2022/10/31 11:45:00;;;;;;;51.97;30.50;;;;;;;13.72;100.00;101183.06;5095674;57;1145222;-77
2022/10/31 11:50:12;;;;;;;55.83;32.17;;;;;;;13.83;100.00;101189.69;5088865;58;1145511;-77
2022/10/31 11:55:39;;;;;;;65.57;42.03;;;;;;;13.85;100.00;101186.91;5138291;57;1145495;-78
2022/10/31 12:00:52;;;;;;;63.00;35.40;;;;;;;13.92;100.00;101182.77;5177420;57;1143388;-77
2022/10/31 12:06:24;;;;;;;57.30;34.30;;;;;;;14.02;100.00;101179.73;5178067;57;1143283;-77
2022/10/31 12:11:59;;;;;;;59.50;30.40;;;;;;;14.07;100.00;101189.50;5178088;57;1143390;-77
2022/10/31 12:17:19;;;;;;;54.13;30.13;;;;;;;14.09;100.00;101184.42;5134323;57;1143314;-77
2022/10/31 12:22:42;;;;;;;54.77;31.50;;;;;;;14.12;100.00;101181.15;5112362;56;1265162;-77
2022/10/31 12:27:58;;;;;;;57.33;32.13;;;;;;;14.12;100.00;101178.01;5101915;57;1145441;-77
2022/10/31 12:33:35;;;;;;;66.30;34.77;;;;;;;14.20;100.00;101176.91;5124761;57;1145310;-76
2022/10/31 12:39:01;;;;;;;64.67;36.53;;;;;;;14.23;100.00;101174.45;5104115;57;1145262;-76
2022/10/31 12:44:39;;;;;;;59.23;37.00;;;;;;;14.29;100.00;101169.97;5103918;57;1145314;-77
2022/10/31 12:50:04;;;;;;;67.83;40.00;;;;;;;14.34;100.00;101176.61;5129577;57;1145550;-76
2022/10/31 12:55:33;;;;;;;64.93;36.03;;;;;;;14.42;100.00;101166.67;4885844;59;1145198;-77
2022/10/31 13:00:42;;;;;;;69.10;38.63;;;;;;;14.49;100.00;101173.19;4890070;60;1145210;-76
2022/10/31 13:05:56;;;;;;;67.33;36.87;;;;;;;14.49;100.00;101168.36;5156582;57;1145222;-77
2022/10/31 13:11:11;;;;;;;69.73;36.63;;;;;;;14.51;100.00;101161.94;4902163;59;1143291;-77
2022/10/31 13:16:26;;;;;;;79.00;40.97;;;;;;;14.46;100.00;101166.79;4931081;59;1143516;-76
2022/10/31 13:22:01;;;;;;;65.97;39.63;;;;;;;14.48;100.00;101162.67;5139375;57;1143045;-77
2022/10/31 13:27:18;;;;;;;;;;;;;;;14.45;100.00;101151.79;4874715;60;1143342;-76
2022/10/31 13:32:27;;;;;;;85.67;45.83;;;;;;;14.52;100.00;101148.11;5157593;57;976338;-78
2022/10/31 13:37:40;;;;;;;70.03;36.73;;;;;;;14.56;100.00;101156.20;5114574;56;1139358;-79
2022/10/31 13:43:11;;;;;;;89.72;43.30;;;;;;;14.56;100.00;101137.57;5094089;57;1145540;-78
2022/10/31 13:48:27;;;;;;;78.87;40.57;;;;;;;14.57;100.00;101138.77;5089579;57;1145183;-79
2022/10/31 13:53:58;;;;;;;94.17;42.70;;;;;;;14.56;100.00;101134.91;4970437;58;1145576;-77
2022/10/31 13:59:22;;;;;;;96.43;43.07;;;;;;;14.58;100.00;101140.47;5036800;58;1145190;-78
2022/10/31 14:04:38;;;;;;;102.03;40.80;;;;;;;14.58;100.00;101135.14;5107140;56;1145174;-78
2022/10/31 14:10:05;;;;;;;83.50;39.87;;;;;;;14.61;100.00;101140.70;4971200;59;1147314;-78
2022/10/31 14:15:26;;;;;;;89.60;41.60;;;;;;;14.57;100.00;101141.92;5130805;57;1145485;-78
2022/10/31 14:20:45;;;;;;;119.08;44.75;;;;;;;14.56;100.00;101149.55;5134210;57;1145261;-78
2022/10/31 14:25:51;;;;;;;132.00;37.13;;;;;;;14.58;100.00;101139.13;4967874;59;1147739;-78
2022/10/31 14:31:00;;;;;;;124.10;37.07;;;;;;;14.55;100.00;101136.72;4995856;57;1147423;-78
2022/10/31 14:36:11;;;;;;;93.80;30.87;;;;;;;14.48;100.00;101121.41;4987400;59;1147350;-78
2022/10/31 14:41:48;;;;;;;87.40;33.53;;;;;;;14.40;100.00;101134.87;4932385;58;1143188;-78
2022/10/31 14:47:15;;;;;;;261.60;171.57;;;;;;;14.27;100.00;101142.16;5098520;56;1143191;-77
2022/10/31 14:52:22;;;;;;;114.27;34.03;;;;;;;14.11;100.00;101152.37;5134498;56;1147373;-78
2022/10/31 14:57:36;;;;;;;147.87;33.13;;;;;;;14.08;100.00;101151.29;4998924;58;1145484;-79
2022/10/31 15:02:59;;;;;;;;;;;;;;;14.13;100.00;101144.27;5088552;58;1145149;-78
2022/10/31 15:08:08;;;;;;;168.33;37.40;;;;;;;14.16;100.00;101141.36;5095413;58;978330;-78
2022/10/31 15:13:22;;;;;;;117.30;39.67;;;;;;;14.18;100.00;101142.93;5210759;56;1145220;-79
2022/10/31 15:18:29;;;;;;;102.17;37.23;;;;;;;14.20;100.00;101145.47;4958762;58;1147283;-77
2022/10/31 15:23:35;;;;;;;132.00;38.03;;;;;;;14.12;100.00;101154.06;4984853;59;1147305;-78
2022/10/31 15:28:41;;;;;;;184.67;35.97;;;;;;;14.08;100.00;101152.14;4948382;59;1147549;-79
2022/10/31 15:33:49;;;;;;;219.20;39.60;;;;;;;14.13;100.00;101149.59;4991814;59;1147334;-78
2022/10/31 15:38:59;;;;;;;210.40;43.58;;;;;;;14.16;100.00;101154.67;5108335;57;1147244;-78
2022/10/31 15:44:21;;;;;;;162.03;47.67;;;;;;;14.12;100.00;101159.88;5076488;58;1147306;-78
2022/10/31 15:49:36;;;;;;;100.97;42.00;;;;;;;14.04;100.00;101164.02;5068596;58;1147454;-78
2022/10/31 15:54:55;;;;;;;105.90;37.20;;;;;;;14.03;100.00;101159.67;5006092;58;1147316;-78
2022/10/31 16:00:01;;;;;;;112.83;35.60;;;;;;;14.07;100.00;101169.55;4996881;58;1147334;-78
2022/10/31 16:05:19;;;;;;;126.20;30.13;;;;;;;14.06;100.00;101175.35;5072757;57;1147314;-78
2022/10/31 16:10:27;;;;;;;182.00;31.87;;;;;;;14.07;100.00;101179.70;5072923;57;1147339;-79
2022/10/31 16:15:36;;;;;;;147.70;32.73;;;;;;;14.11;100.00;101182.97;5075289;57;1147344;-79
2022/10/31 16:20:41;;;;;;;126.47;34.07;;;;;;;14.04;100.00;101189.29;5084422;57;1147594;-78
2022/10/31 16:25:48;;;;;;;124.67;32.40;;;;;;;13.96;100.00;101187.72;5133974;57;1147320;-77
2022/10/31 16:30:57;;;;;;;57.33;27.13;;;;;;;13.95;100.00;101187.84;5133898;57;1147311;-77
2022/10/31 16:36:31;;;;;;;59.73;25.87;;;;;;;13.94;100.00;101191.47;5098170;57;1145509;-77
2022/10/31 16:41:43;;;;;;;118.13;41.67;;;;;;;13.85;100.00;101186.42;5087179;58;1145254;-77
2022/10/31 16:46:49;;;;;;;79.57;32.50;;;;;;;13.83;100.00;101187.03;4854481;60;1145287;-77
2022/10/31 16:51:54;;;;;;;76.87;28.97;;;;;;;13.81;100.00;101188.95;5096576;57;1143153;-76
2022/10/31 16:57:03;;;;;;;113.33;35.03;;;;;;;13.81;100.00;101185.45;5096456;58;1143229;-76
2022/10/31 17:02:15;;;;;;;107.13;36.23;;;;;;;13.79;100.00;101187.39;5163469;57;1145216;-77
2022/10/31 17:07:21;;;;;;;133.80;27.50;;;;;;;13.75;100.00;101186.78;5162443;57;1145473;-77
2022/10/31 17:12:28;;;;;;;89.90;25.53;;;;;;;13.71;100.00;101187.53;5092056;57;1145833;-77
2022/10/31 17:17:34;;;;;;;126.50;25.73;;;;;;;13.65;100.00;101185.36;4850630;60;1143178;-77
2022/10/31 17:22:40;;;;;;;68.93;25.07;;;;;;;13.57;100.00;101189.13;5164571;57;1145261;-77
2022/10/31 17:27:46;;;;;;;107.03;31.00;;;;;;;13.47;100.00;101179.32;4927415;59;1143509;-77
2022/10/31 17:32:53;;;;;;;69.65;22.65;;;;;;;13.41;100.00;101176.69;5180642;57;1145152;-77
2022/10/31 17:37:58;;;;;;;93.83;24.77;;;;;;;13.31;100.00;101173.89;5172913;56;1143206;-77
2022/10/31 17:43:04;;;;;;;55.50;25.53;;;;;;;13.25;100.00;101173.54;5190056;57;1143134;-77
2022/10/31 17:48:12;;;;;;;52.53;19.77;;;;;;;13.26;100.00;101169.44;5178963;57;1143152;-77
2022/10/31 17:53:18;;;;;;;68.43;23.67;;;;;;;13.20;100.00;101166.41;5164525;57;1143172;-77
2022/10/31 17:58:23;;;;;;;92.73;26.57;;;;;;;13.15;100.00;101167.23;5096663;57;1143381;-77
2022/10/31 18:03:29;;;;;;;91.90;27.53;;;;;;;13.11;100.00;101169.28;5177778;57;1141048;-78
2022/10/31 18:08:38;;;;;;;73.83;30.27;;;;;;;13.05;100.00;101171.06;5177612;57;1141089;-78
2022/10/31 18:13:44;;;;;;;120.57;26.87;;;;;;;12.96;100.00;101164.67;5178370;57;1145246;-78
2022/10/31 18:18:58;;;;;;;69.42;26.62;;;;;;;12.97;100.00;101158.40;5178010;57;1147287;-77
2022/10/31 18:24:04;;;;;;;90.90;26.47;;;;;;;12.98;100.00;101159.25;5005430;59;1145247;-78
2022/10/31 18:29:11;;;;;;;129.67;25.67;;;;;;;13.03;100.00;101163.22;5005545;59;1145223;-78
2022/10/31 18:34:18;;;;;;;99.60;23.87;;;;;;;13.01;100.00;101152.34;5007445;59;1147341;-78
2022/10/31 18:39:24;;;;;;;97.10;34.90;;;;;;;12.95;100.00;101158.15;5100824;57;1145106;-78
2022/10/31 18:44:31;;;;;;;99.17;28.67;;;;;;;12.87;100.00;101158.73;5134346;57;1145356;-78
2022/10/31 18:49:36;;;;;;;82.40;23.47;;;;;;;12.80;100.00;101162.83;5134353;57;1145233;-78
2022/10/31 18:54:43;;;;;;;68.93;19.73;;;;;;;12.78;100.00;101156.80;5064386;57;1145256;-78
2022/10/31 18:59:49;;;;;;;82.23;24.20;;;;;;;12.74;100.00;101153.16;5078269;57;1145159;-78
2022/10/31 19:04:55;;;;;;;64.40;23.67;;;;;;;12.74;100.00;101158.46;5134073;57;1145366;-77
2022/10/31 19:10:00;;;;;;;64.80;19.67;;;;;;;12.77;100.00;101160.41;5134237;57;1145215;-78
2022/10/31 19:15:08;;;;;;;75.67;18.23;;;;;;;12.84;100.00;101157.62;5134209;57;1145188;-78
2022/10/31 19:20:14;;;;;;;67.73;23.50;;;;;;;12.74;100.00;101148.69;5022412;58;1145420;-78
2022/10/31 19:25:21;;;;;;;115.07;24.10;;;;;;;12.71;100.00;101149.40;5093375;57;1145278;-78
2022/10/31 19:30:27;;;;;;;79.90;27.27;;;;;;;12.73;100.00;101140.36;5093354;58;1147271;-79
2022/10/31 19:35:32;;;;;;;71.60;25.23;;;;;;;12.77;100.00;101144.48;5093318;58;1145164;-79
2022/10/31 19:40:40;;;;;;;83.03;25.27;;;;;;;12.79;100.00;101147.87;5164759;57;1145222;-78
2022/10/31 19:45:56;;;;;;;73.27;26.37;;;;;;;12.80;100.00;101141.59;5100256;56;1145163;-80
2022/10/31 19:51:05;;;;;;;121.10;34.93;;;;;;;12.85;100.00;101134.10;5093323;57;1145184;-79
2022/10/31 19:56:17;;;;;;;61.33;22.27;;;;;;;12.83;100.00;101134.70;5093197;58;1147333;-79
2022/10/31 20:01:25;;;;;;;92.60;22.70;;;;;;;12.83;100.00;101123.27;5114478;56;1145222;-78
2022/10/31 20:06:40;;;;;;;70.83;23.53;;;;;;;12.83;100.00;101132.55;5093073;58;1145209;-79
2022/10/31 20:11:47;;;;;;;70.23;23.20;;;;;;;12.90;100.00;101130.62;5120021;56;1145254;-77
2022/10/31 20:16:54;;;;;;;62.83;25.23;;;;;;;12.94;100.00;101123.27;5111929;57;1145179;-78
2022/10/31 20:22:01;;;;;;;89.70;29.30;;;;;;;12.97;100.00;101119.90;5087629;57;1145141;-78
2022/10/31 20:27:07;;;;;;;56.67;24.07;;;;;;;12.98;100.00;101126.05;5145524;57;1145380;-78
2022/10/31 20:32:12;;;;;;;74.80;23.73;;;;;;;12.95;100.00;101116.52;5098825;57;1144948;-78
2022/10/31 20:37:19;;;;;;;63.63;27.17;;;;;;;12.97;100.00;101123.88;5102248;57;1145306;-78
2022/10/31 20:42:25;;;;;;;94.57;23.83;;;;;;;12.95;100.00;101120.50;4993539;58;1145315;-78
2022/10/31 20:47:30;;;;;;;42.58;21.80;;;;;;;12.92;100.00;101116.75;5053686;57;1142767;-78
2022/10/31 20:52:36;;;;;;;54.63;22.27;;;;;;;12.88;100.00;101121.92;4966674;59;1143376;-77
2022/10/31 20:57:42;;;;;;;45.37;21.87;;;;;;;12.79;100.00;101120.00;5091436;56;1143127;-79
2022/10/31 21:02:48;;;;;;;52.83;25.90;;;;;;;12.77;100.00;101120.59;5179205;56;1143178;-78
2022/10/31 21:07:54;;;;;;;61.90;23.52;;;;;;;12.79;100.00;101117.34;5009963;58;1143150;-78
2022/10/31 21:13:00;;;;;;;56.63;22.60;;;;;;;12.79;100.00;101109.38;5105198;58;1143264;-78
2022/10/31 21:18:05;;;;;;;59.37;25.10;;;;;;;12.83;100.00;101107.34;5088876;58;1143161;-78
2022/10/31 21:23:14;;;;;;;40.80;20.37;;;;;;;12.88;100.00;101103.82;4957716;58;1143192;-78
2022/10/31 21:28:20;;;;;;;67.00;21.13;;;;;;;12.93;100.00;101097.20;5142052;57;1143186;-79
2022/10/31 21:33:26;;;;;;;74.07;24.13;;;;;;;12.94;100.00;101095.39;5144420;56;1143437;-78
2022/10/31 21:38:32;;;;;;;67.43;22.97;;;;;;;12.92;100.00;101093.34;5132816;56;1143030;-79
2022/10/31 21:43:42;;;;;;;40.87;24.47;;;;;;;12.89;100.00;101093.09;5061615;57;1143286;-79
2022/10/31 21:48:49;;;;;;;52.40;21.97;;;;;;;12.89;100.00;101091.76;5107866;57;1143239;-79
2022/10/31 21:59:20;;;;;;;43.63;18.30;;;;;;;12.86;100.00;101096.45;5121815;56;1141068;-78
2022/10/31 22:04:28;;;;;;;33.45;16.80;;;;;;;12.75;100.00;101097.30;5167275;57;1145050;-79
2022/10/31 22:09:35;;;;;;;35.90;16.93;;;;;;;12.67;100.00;101091.27;5248324;56;1145154;-79
2022/10/31 22:14:40;;;;;;;58.13;30.30;;;;;;;12.56;100.00;101086.41;5108468;57;1145242;-79
2022/10/31 22:19:46;;;;;;;31.80;15.83;;;;;;;12.50;100.00;101082.44;5096113;57;1145725;-79
2022/10/31 22:24:53;;;;;;;36.53;17.60;;;;;;;12.50;100.00;101079.78;5096757;57;1145146;-79
2022/10/31 22:29:59;;;;;;;33.67;14.73;;;;;;;12.48;100.00;101076.88;5093410;57;1145179;-79
2022/10/31 22:35:05;;;;;;;35.83;17.17;;;;;;;12.47;100.00;101082.66;5093600;58;1145437;-79
2022/10/31 22:40:11;;;;;;;31.87;17.77;;;;;;;12.46;100.00;101074.81;5121090;56;1145316;-79
2022/10/31 22:45:17;;;;;;;47.70;20.00;;;;;;;12.44;100.00;101069.62;5058062;58;1145266;-78
2022/10/31 22:50:23;;;;;;;55.50;23.47;;;;;;;12.47;100.00;101067.22;4931698;60;1145443;-79
2022/10/31 22:55:29;;;;;;;55.85;19.60;;;;;;;12.49;100.00;101067.47;5146250;57;1145570;-78
2022/10/31 23:00:35;;;;;;;50.57;16.97;;;;;;;12.53;100.00;101059.62;5147586;57;1145142;-79